Latest Weather Observations for Murrurundi Gap

IDN60801

Issued at 2:02 pm EDT Wednesday 29 March 2017 (issued every 30 minutes, with the page automatically refreshed every 10 minutes)

About weather observations | Map of weather stations | Latest weather observations for NSW | Other Formats
Station Details ID: 061392 Name: MURRURUNDI GAP AWS Lat: -31.74 Lon: 150.79 Height: 729.4 m
Data from the previous 72 hours. | See also: Recent months at Murrurundi Gap
Date/Time
EDT
Temp
°C
App
Temp
°C
Dew
Point
°C
Rel
Hum
%
Delta-T
°C
Wind Press
QNH
hPa
Press
MSL
hPa
Rain since
9am
mm
Dir  Spd
km/h
Gust
km/h
Spd
kts
Gust
kts
29/02:00pm 28.1 27.6 19.1 58 6.0 NW 20 28 11 15 1014.8 1011.5 0.0
29/01:30pm 26.8 24.6 18.6 60 5.4 NW 28 39 15 21 1015.3 1012.1 0.0
29/01:00pm 26.5 24.8 18.9 63 5.0 NW 26 33 14 18 1015.6 1012.4 0.0
29/12:30pm 26.3 24.7 19.2 65 4.7 NW 26 33 14 18 1016.1 1012.9 0.0
29/12:00pm 25.4 22.4 18.6 66 4.4 NW 32 39 17 21 1016.4 1013.2 0.0
29/11:30am 25.2 22.7 18.9 68 4.1 NW 30 37 16 20 1016.6 1013.4 0.0
29/11:00am 24.6 21.5 18.5 69 4.0 NW 32 39 17 21 1016.8 1013.6 0.0
29/10:30am 24.2 20.4 18.2 69 3.9 NW 35 41 19 22 1016.9 1013.7 0.0
29/10:00am 24.2 21.5 18.4 70 3.8 NW 30 37 16 20 1016.9 1013.7 0.0
29/09:30am 23.6 22.0 18.3 72 3.4 NW 24 28 13 15 1016.8 1013.6 0.0
29/09:00am 22.8 21.3 17.7 73 3.3 NW 22 26 12 14 1016.5 1013.3 0.0
29/08:30am 21.5 20.3 17.5 78 2.5 WNW 20 22 11 12 1016.4 1013.2 0.0
29/08:00am 22.0 21.3 17.4 75 2.9 WNW 17 20 9 11 1016.1 1012.9 0.0
29/07:30am 21.9 20.6 17.3 75 2.9 NW 20 24 11 13 1015.9 1012.6 0.0
29/07:00am 21.6 20.5 17.2 76 2.8 NW 19 24 10 13 1015.6 1012.4 0.0
29/06:30am 21.4 20.7 17.4 78 2.5 WNW 17 20 9 11 1015.3 1012.1 0.0
29/06:00am 21.2 21.0 17.6 80 2.3 NW 15 15 8 8 1015.2 1012.0 0.0
29/05:30am 21.6 21.4 17.6 78 2.5 NW 15 17 8 9 1015.1 1011.9 0.0
29/05:00am 21.8 22.0 17.6 77 2.7 WNW 13 15 7 8 1015.0 1011.8 0.0
29/04:30am 20.5 20.8 17.1 81 2.1 WNW 11 15 6 8 1014.8 1011.5 0.0
29/04:00am 19.0 21.9 19.0 100 0.0 SE 2 7 1 4 1014.9 1011.7 0.0
29/03:30am 17.6 18.2 17.6 100 0.0 SE 11 13 6 7 1015.0 1011.8 0.0
29/03:00am 18.9 20.0 18.9 100 0.0 ESE 11 13 6 7 1015.4 1012.2 0.0
29/02:30am 19.7 21.1 18.7 94 0.6 ESE 9 11 5 6 1015.6 1012.4 0.0
29/02:00am 19.6 20.9 19.3 98 0.2 SE 11 13 6 7 1015.8 1012.5 0.0
29/01:30am 19.6 20.7 18.9 96 0.5 SE 11 13 6 7 1015.9 1012.6 0.0
29/01:00am 20.0 21.3 17.2 84 1.8 SE 6 9 3 5 1016.0 1012.7 0.0
29/12:30am 23.9 26.5 17.6 68 4.0 CALM 0 0 0 0 1016.2 1013.0 0.0
29/12:00am 24.4 26.6 17.4 65 4.5 WNW 2 6 1 3 1016.4 1013.2 0.0
 
Date/Time
EDT
Temp
°C
App
Temp
°C
Dew
Point
°C
Rel
Hum
%
Delta-T
°C
Wind Press
QNH
hPa
Press
MSL
hPa
Rain since
9am
mm
Dir  Spd
km/h
Gust
km/h
Spd
kts
Gust
kts
28/11:30pm 24.5 25.4 17.5 65 4.5 WNW 9 11 5 6 1016.5 1013.3 0.0
28/11:00pm 24.5 25.5 17.7 66 4.4 NW 9 13 5 7 1016.6 1013.4 0.0
28/10:30pm 24.6 25.0 18.1 67 4.2 NNW 13 17 7 9 1016.7 1013.5 0.0
28/10:00pm 24.8 25.1 18.0 66 4.4 NW 13 15 7 8 1016.7 1013.5 0.0
28/09:30pm 24.8 26.0 18.3 67 4.2 NW 9 11 5 6 1016.6 1013.4 0.0
28/09:00pm 24.7 25.5 18.2 67 4.2 NW 11 13 6 7 1016.4 1013.2 0.0
28/08:30pm 24.6 25.4 18.1 67 4.2 NNW 11 15 6 8 1016.2 1013.0 0.0
28/08:00pm 25.1 25.5 18.1 65 4.5 NNW 13 15 7 8 1015.9 1012.6 0.0
28/07:30pm 25.1 26.0 18.3 66 4.4 NW 11 13 6 7 1015.6 1012.4 0.0
28/07:00pm 25.7 26.0 17.9 62 5.1 NW 13 15 7 8 1015.3 1012.1 0.0
28/06:30pm 27.3 26.8 17.8 56 6.2 NW 17 20 9 11 1015.1 1011.9 0.0
28/06:00pm 27.9 27.7 17.7 53 6.6 NW 15 20 8 11 1014.9 1011.7 0.0
28/05:30pm 28.1 27.5 17.6 53 6.8 NW 17 22 9 12 1014.7 1011.4 0.0
28/05:00pm 27.9 27.2 17.4 52 6.8 NNW 17 24 9 13 1014.7 1011.4 0.0
28/04:30pm 28.2 27.8 18.0 54 6.7 NW 17 26 9 14 1014.8 1011.5 0.0
28/04:00pm 28.1 27.5 18.5 56 6.3 NW 19 24 10 13 1015.0 1011.8 0.0
28/03:30pm 27.7 26.9 18.1 56 6.3 NW 19 26 10 14 1015.2 1012.0 0.0
28/03:00pm 27.7 27.7 19.0 59 5.8 WNW 17 26 9 14 1015.2 1012.0 0.0
28/02:30pm 27.2 27.0 18.5 59 5.7 NW 17 26 9 14 1015.5 1012.3 0.0
28/02:00pm 26.7 25.9 18.0 59 5.7 NNW 19 22 10 12 1015.9 1012.6 0.0
28/01:30pm 26.5 26.0 18.6 62 5.2 WNW 19 24 10 13 1016.0 1012.7 0.0
28/01:00pm 25.9 25.2 18.6 64 4.8 NW 20 28 11 15 1016.5 1013.3 0.0
28/12:30pm 26.1 25.7 18.8 64 4.8 NW 19 24 10 13 1017.0 1013.8 0.0
28/12:00pm 25.3 24.6 18.7 67 4.3 NW 20 28 11 15 1017.3 1014.0 0.0
28/11:30am 25.0 23.7 18.2 66 4.4 NNW 22 32 12 17 1017.6 1014.4 0.0
28/11:00am 24.4 22.3 18.1 68 4.1 NW 26 33 14 18 1017.7 1014.5 0.0
28/10:30am 23.9 21.8 18.1 70 3.7 NW 26 32 14 17 1017.8 1014.6 0.0
28/10:00am 23.5 21.5 18.4 73 3.3 NW 26 32 14 17 1017.7 1014.5 0.0
28/09:30am 23.4 22.5 18.3 73 3.3 NW 20 26 11 14 1017.7 1014.5 0.0
28/09:00am 22.9 21.5 18.0 74 3.1 NW 22 26 12 14 1017.4 1014.2 0.0
28/08:30am 21.8 20.3 17.8 78 2.6 NW 22 24 12 13 1017.0 1013.8 0.0
28/08:00am 20.6 19.4 17.6 83 1.9 NW 20 24 11 13 1016.6 1013.4 0.0
28/07:30am 20.3 19.0 17.3 83 1.9 WNW 20 24 11 13 1016.3 1013.1 0.0
28/07:00am 20.1 18.9 17.1 83 1.9 WNW 19 20 10 11 1015.9 1012.6 0.0
28/06:30am 20.2 19.0 17.0 82 2.0 WNW 19 20 10 11 1015.5 1012.3 0.0
28/06:00am 21.5 20.8 17.3 77 2.7 NW 17 20 9 11 1015.4 1012.2 0.0
28/05:30am 21.1 19.9 17.1 78 2.5 NW 19 20 10 11 1015.0 1011.8 0.0
28/05:00am 21.1 20.2 16.9 77 2.6 WNW 17 19 9 10 1014.9 1011.7 0.0
28/04:30am 21.4 20.6 17.0 76 2.8 NW 17 20 9 11 1014.9 1011.7 0.0
28/04:00am 20.5 19.1 16.5 78 2.5 NW 19 20 10 11 1014.9 1011.7 0.0
28/03:30am 20.6 19.1 16.4 77 2.6 NW 19 20 10 11 1015.2 1012.0 0.0
28/03:00am 20.4 18.9 16.4 78 2.5 NW 19 20 10 11 1015.3 1012.1 0.0
28/02:30am 20.9 19.4 16.3 75 2.9 WNW 19 20 10 11 1015.6 1012.4 0.0
28/02:00am 21.3 19.7 16.5 74 3.0 NW 20 26 11 14 1015.5 1012.3 0.0
28/01:30am 20.9 19.1 16.1 74 3.0 WNW 20 26 11 14 1016.2 1013.0 0.0
28/01:00am 20.9 18.8 16.1 74 3.0 NW 22 24 12 13 1016.1 1012.9 0.0
28/12:30am 20.6 18.3 15.6 73 3.1 NW 22 24 12 13 1016.2 1013.0 0.0
28/12:00am 21.8 19.7 16.3 71 3.4 NW 22 26 12 14 1016.0 1012.7 0.0
 
Date/Time
EDT
Temp
°C
App
Temp
°C
Dew
Point
°C
Rel
Hum
%
Delta-T
°C
Wind Press
QNH
hPa
Press
MSL
hPa
Rain since
9am
mm
Dir  Spd
km/h
Gust
km/h
Spd
kts
Gust
kts
27/11:30pm 21.3 19.3 15.4 69 3.6 NW 20 26 11 14 1016.3 1013.1 0.0
27/11:00pm 22.3 20.0 15.6 66 4.1 NW 22 26 12 14 1016.0 1012.7 0.0
27/10:30pm 21.6 19.4 15.0 66 4.0 NW 20 24 11 13 1016.3 1013.1 0.0
27/10:00pm 21.9 19.7 14.5 63 4.5 NW 19 22 10 12 1016.3 1013.1 0.0
27/09:30pm 22.3 19.9 14.4 61 4.8 NW 20 22 11 12 1016.1 1012.9 0.0
27/09:00pm 22.5 20.2 14.1 59 5.1 NW 19 22 10 12 1016.0 1012.7 0.0
27/08:30pm 22.9 20.9 13.9 57 5.4 NNW 17 20 9 11 1015.9 1012.6 0.0
27/08:00pm 23.1 21.0 13.6 55 5.7 NW 17 20 9 11 1015.5 1012.3 0.0
27/07:30pm 23.0 21.5 13.2 54 5.8 NW 13 15 7 8 1015.4 1012.2 0.0
27/07:00pm 23.7 22.7 13.3 52 6.2 NNW 11 13 6 7 1015.2 1012.0 0.0
27/06:30pm 25.1 23.6 13.0 47 7.3 NNW 13 15 7 8 1015.3 1012.1 0.0
27/06:00pm 25.8 23.9 13.0 45 7.7 NW 15 19 8 10 1015.3 1012.1 0.0
27/05:30pm 26.1 24.4 12.5 42 8.1 NW 13 19 7 10 1015.4 1012.2 0.0
27/05:00pm 26.3 24.7 12.7 43 8.2 NNW 13 17 7 9 1015.5 1012.3 0.0
27/04:30pm 26.2 24.5 12.3 42 8.3 NW 13 17 7 9 1015.6 1012.4 0.0
27/04:00pm 26.2 25.5 14.3 48 7.3 NNW 11 15 6 8 1015.8 1012.5 0.0
27/03:30pm 25.8 22.8 12.6 44 7.9 NW 20 28 11 15 1016.1 1012.9 0.0
27/03:00pm 25.7 23.6 15.1 52 6.6 NW 20 24 11 13 1016.4 1013.2 0.0
27/02:30pm 25.4 22.8 13.3 47 7.3 NW 19 24 10 13 1016.7 1013.5 0.0
27/02:00pm 25.0 22.6 14.5 52 6.4 NW 20 28 11 15 1017.1 1013.9 0.0
27/01:30pm 24.9 22.3 13.8 50 6.7 WNW 20 26 11 14 1017.7 1014.5 0.0
27/01:00pm 24.3 21.9 14.4 54 6.0 WNW 20 28 11 15 1018.1 1014.9 0.0
27/12:30pm 23.9 21.6 14.0 54 6.0 NW 19 26 10 14 1018.4 1015.2 0.0
27/12:00pm 23.3 21.7 14.0 56 5.6 NW 15 20 8 11 1018.9 1015.7 0.0
27/11:30am 22.7 21.3 14.5 60 5.0 NW 15 22 8 12 1019.1 1015.9 0.0
27/11:00am 22.5 22.5 15.1 63 4.5 NW 9 13 5 7 1019.3 1016.1 0.0
27/10:30am 21.1 22.9 18.3 84 1.8 ESE 6 9 3 5 1019.4 1016.2 0.0
27/10:00am 19.4 20.1 17.0 86 1.5 ESE 9 13 5 7 1019.6 1016.4 0.0
27/09:30am 17.8 18.8 16.8 94 0.6 E 7 9 4 5 1019.7 1016.5 0.0
27/09:00am 17.0 17.3 17.0 100 0.0 ESE 11 11 6 6 1019.5 1016.3 0.2
27/08:39am 16.2 16.2 16.2 100 0.0 ESE 11 13 6 7 1019.3 1016.1 0.2
27/08:30am 16.1 16.0 16.1 100 0.0 ESE 11 13 6 7 1019.2 1016.0 0.2
27/08:00am 15.3 14.2 15.3 100 0.0 ESE 15 17 8 9 1018.9 1015.7 0.2
27/07:30am 15.3 13.2 15.3 100 0.0 ESE 20 24 11 13 1018.3 1015.1 0.2
27/07:00am 15.1 13.0 15.1 100 0.0 SE 20 26 11 14 1018.2 1015.0 0.2
27/06:30am 15.3 13.2 15.3 100 0.0 SE 20 24 11 13 1017.8 1014.6 0.2
27/06:00am 15.4 12.6 15.4 100 0.0 ESE 24 30 13 16 1017.7 1014.5 0.2
27/05:30am 15.7 13.4 15.7 100 0.0 SE 22 26 12 14 1017.5 1014.3 0.2
27/05:00am 15.6 14.2 15.6 100 0.0 ESE 17 20 9 11 1017.7 1014.5 0.2
27/04:30am 15.9 15.0 15.9 100 0.0 ESE 15 17 8 9 1017.9 1014.7 0.2
27/04:00am 16.2 15.8 16.2 100 0.0 ESE 13 17 7 9 1018.1 1014.9 0.2
27/03:30am 16.2 15.4 16.2 100 0.0 ESE 15 20 8 11 1018.3 1015.1 0.0
27/03:00am 16.2 15.0 16.2 100 0.0 SE 17 22 9 12 1018.3 1015.1 0.0
27/02:30am 16.2 15.0 16.0 99 0.1 SE 17 20 9 11 1018.5 1015.4 0.0
27/02:07am 16.4 15.2 16.2 99 0.1 SE 17 17 9 9 1018.7 1015.5 0.0
27/02:00am 16.5 15.8 16.3 99 0.1 SE 15 17 8 9 1018.8 1015.6 0.0
27/01:30am 17.2 16.6 16.6 96 0.4 ESE 15 19 8 10 1018.9 1015.7 0.0
27/01:00am 17.6 16.4 17.1 97 0.3 SE 19 22 10 12 1018.9 1015.7 0.0
27/12:30am 17.5 16.3 17.0 97 0.3 SE 19 24 10 13 1018.9 1015.7 0.0
27/12:00am 18.2 17.0 17.0 93 0.7 SE 19 24 10 13 1018.9 1015.7 0.0
 
Date/Time
EDT
Temp
°C
App
Temp
°C
Dew
Point
°C
Rel
Hum
%
Delta-T
°C
Wind Press
QNH
hPa
Press
MSL
hPa
Rain since
9am
mm
Dir  Spd
km/h
Gust
km/h
Spd
kts
Gust
kts
26/11:30pm 18.8 16.8 17.5 92 0.8 SE 24 28 13 15 1019.0 1015.8 0.0
26/11:00pm 18.5 17.4 17.7 95 0.5 SE 20 24 11 13 1019.2 1016.0 0.0
26/10:30pm 18.6 17.4 17.4 93 0.8 SE 20 26 11 14 1019.3 1016.1 0.0
26/10:00pm 18.9 18.4 17.9 94 0.6 SE 17 24 9 13 1019.1 1015.9 0.0
26/09:30pm 18.8 17.8 17.5 92 0.8 ESE 19 24 10 13 1018.9 1015.7 0.0
26/09:00pm 19.9 19.3 17.5 86 1.5 SE 17 22 9 12 1018.7 1015.5 0.0
26/08:30pm 20.2 20.8 17.6 85 1.6 SE 11 20 6 11 1018.2 1015.0 0.0
26/08:00pm 20.6 20.2 18.0 85 1.7 SSE 17 19 9 10 1017.8 1014.6 0.0
26/07:30pm 20.8 20.8 18.2 85 1.7 SSE 15 20 8 11 1017.6 1014.4 0.0
26/07:00pm 21.1 20.8 18.3 84 1.8 SSE 17 24 9 13 1017.3 1014.0 0.0
26/06:30pm 21.8 20.9 18.2 80 2.3 S 20 26 11 14 1017.0 1013.8 0.0
26/06:00pm 22.5 22.2 18.3 77 2.7 SSE 17 22 9 12 1016.7 1013.5 0.0
26/05:30pm 23.2 22.9 18.3 74 3.2 SE 17 20 9 11 1016.8 1013.6 0.0
26/05:00pm 23.9 23.5 18.1 70 3.7 SE 17 20 9 11 1016.5 1013.3 0.0
26/04:30pm 24.4 25.1 18.8 71 3.7 ESE 13 17 7 9 1016.4 1013.2 0.0
26/04:00pm 24.2 24.4 18.6 71 3.6 ESE 15 20 8 11 1016.5 1013.3 0.0
26/03:30pm 23.6 24.9 17.6 69 3.8 SE 7 9 4 5 1016.6 1013.4 0.0
26/03:00pm 24.0 24.9 17.5 67 4.2 SSE 9 11 5 6 1017.0 1013.8 0.0
26/02:30pm 25.3 25.3 17.2 61 5.2 NW 13 19 7 10 1016.9 1013.7 0.0

Other Formats:

Comma delimited format used in spreadsheet applications
http://www.bom.gov.au/fwo/IDN60801/IDN60801.95747.axf

JavaScript Object Notation format (JSON) in row-major order
http://www.bom.gov.au/fwo/IDN60801/IDN60801.95747.json